createdAt,value
2018-02-07T00:00:57.257Z,8.00
2018-02-07T00:02:18.250Z,8.00
2018-02-07T00:02:57.256Z,8.00
2018-02-07T00:03:57.223Z,8.00
2018-02-07T00:04:57.221Z,8.00
2018-02-07T00:05:57.207Z,8.00
2018-02-07T00:06:57.205Z,8.00
2018-02-07T00:08:18.188Z,8.00
2018-02-07T00:08:57.175Z,8.00
2018-02-07T00:09:57.161Z,8.00
2018-02-07T00:10:57.159Z,8.00
2018-02-07T00:11:57.140Z,8.00
2018-02-07T00:12:57.132Z,8.00
2018-02-07T00:14:18.128Z,8.00
2018-02-07T00:14:57.108Z,8.00
2018-02-07T00:15:57.095Z,8.00
2018-02-07T00:16:57.091Z,8.00
2018-02-07T00:17:57.076Z,8.00
2018-02-07T00:18:57.065Z,8.00
2018-02-07T00:20:18.165Z,8.00
2018-02-07T00:20:57.706Z,8.00
2018-02-07T00:21:57.031Z,8.00
2018-02-07T00:22:57.020Z,8.00
2018-02-07T00:23:57.010Z,8.00
2018-02-07T00:24:57.013Z,8.00
2018-02-07T00:26:17.996Z,8.00
2018-02-07T00:26:56.980Z,8.00
2018-02-07T00:27:56.969Z,8.00
2018-02-07T00:28:56.956Z,8.00
2018-02-07T00:29:56.949Z,8.00
2018-02-07T00:30:56.938Z,8.00
2018-02-07T00:32:17.928Z,8.00
2018-02-07T00:32:56.928Z,8.00
2018-02-07T00:33:58.584Z,8.00
2018-02-07T00:34:57.157Z,8.00
2018-02-07T00:35:56.880Z,8.00
2018-02-07T00:36:56.876Z,8.00
2018-02-07T00:38:17.861Z,8.00
2018-02-07T00:38:56.850Z,8.00
2018-02-07T00:39:56.836Z,4.00
2018-02-07T00:40:56.826Z,8.00
2018-02-07T00:41:56.818Z,8.00
2018-02-07T00:42:56.801Z,8.00
2018-02-07T00:44:17.797Z,8.00
2018-02-07T00:44:56.824Z,8.00
2018-02-07T00:45:56.769Z,8.00
2018-02-07T00:46:56.776Z,8.00
2018-02-07T00:47:56.748Z,8.00
2018-02-07T00:48:56.734Z,8.00
2018-02-07T00:50:17.749Z,8.00
2018-02-07T00:50:56.749Z,8.00
2018-02-07T00:51:56.706Z,8.00
2018-02-07T00:52:56.693Z,8.00
2018-02-07T00:53:56.714Z,8.00
2018-02-07T00:54:56.669Z,8.00
2018-02-07T00:56:17.671Z,8.00
2018-02-07T00:56:56.653Z,8.00
2018-02-07T00:57:56.640Z,8.00
2018-02-07T00:58:56.622Z,8.00
2018-02-07T00:59:56.620Z,8.00
2018-02-07T01:00:56.605Z,8.00
2018-02-07T01:02:17.599Z,8.00
2018-02-07T01:02:56.581Z,8.00
2018-02-07T01:03:56.575Z,8.00
2018-02-07T01:04:56.559Z,8.00
2018-02-07T01:05:56.551Z,8.00
2018-02-07T01:06:56.536Z,8.00
2018-02-07T01:08:17.536Z,8.00
2018-02-07T01:08:56.520Z,8.00
2018-02-07T01:09:56.503Z,8.00
2018-02-07T01:10:56.522Z,8.00
2018-02-07T01:11:56.485Z,8.00
2018-02-07T01:12:56.471Z,8.00
2018-02-07T01:14:17.462Z,8.00
2018-02-07T01:14:56.454Z,8.00
2018-02-07T01:15:56.441Z,8.00
2018-02-07T01:16:56.430Z,8.00
2018-02-07T01:17:56.421Z,8.00
2018-02-07T01:18:56.409Z,8.00
2018-02-07T01:20:17.439Z,8.00
2018-02-07T01:20:56.392Z,8.00
2018-02-07T01:21:56.369Z,8.00
2018-02-07T01:22:56.364Z,8.00
2018-02-07T01:23:56.346Z,8.00
2018-02-07T01:24:56.336Z,8.00
2018-02-07T01:26:17.328Z,8.00
2018-02-07T01:26:56.326Z,8.00
2018-02-07T01:27:56.305Z,8.00
2018-02-07T01:28:56.294Z,8.00
2018-02-07T01:29:56.280Z,8.00
2018-02-07T01:30:56.266Z,8.00
2018-02-07T01:32:17.267Z,8.00
2018-02-07T01:32:56.245Z,8.00
2018-02-07T01:33:56.238Z,8.00
2018-02-07T01:34:56.224Z,8.00
2018-02-07T01:35:56.214Z,8.00
2018-02-07T01:36:56.211Z,8.00
2018-02-07T01:38:17.193Z,8.00
2018-02-07T01:38:56.178Z,8.00
2018-02-07T01:39:56.173Z,8.00
2018-02-07T01:40:56.157Z,8.00
2018-02-07T01:41:56.144Z,8.00
2018-02-07T01:42:56.133Z,8.00
2018-02-07T01:44:17.131Z,8.00
2018-02-07T01:44:56.116Z,8.00
2018-02-07T01:45:56.102Z,8.00
2018-02-07T01:46:56.092Z,8.00
2018-02-07T01:47:56.076Z,8.00
2018-02-07T01:48:56.066Z,8.00
2018-02-07T01:50:17.142Z,8.00
2018-02-07T01:50:56.056Z,8.00
2018-02-07T01:51:56.032Z,8.00
2018-02-07T01:52:56.025Z,8.00
2018-02-07T01:53:56.009Z,8.00
2018-02-07T01:54:55.996Z,8.00
2018-02-07T01:56:16.990Z,8.00
2018-02-07T01:56:55.976Z,8.00
2018-02-07T01:57:55.965Z,8.00
2018-02-07T01:58:55.959Z,8.00
2018-02-07T01:59:55.939Z,8.00
2018-02-07T02:00:55.938Z,8.00
2018-02-07T02:02:16.926Z,8.00
2018-02-07T02:02:55.907Z,8.00
2018-02-07T02:03:55.901Z,8.00
2018-02-07T02:04:55.883Z,8.00
2018-02-07T02:05:55.873Z,8.00
2018-02-07T02:06:55.858Z,8.00
2018-02-07T02:08:16.854Z,8.00
2018-02-07T02:08:55.840Z,8.00
2018-02-07T02:09:55.824Z,8.00
2018-02-07T02:10:55.837Z,8.00
2018-02-07T02:11:55.808Z,8.00
2018-02-07T02:12:55.790Z,8.00
2018-02-07T02:14:16.782Z,8.00
2018-02-07T02:14:55.769Z,8.00
2018-02-07T02:15:55.755Z,8.00
2018-02-07T02:16:55.743Z,8.00
2018-02-07T02:17:55.737Z,8.00
2018-02-07T02:18:55.720Z,8.00
2018-02-07T02:20:16.825Z,8.00
2018-02-07T02:20:55.696Z,8.00
2018-02-07T02:21:55.689Z,8.00
2018-02-07T02:22:55.677Z,8.00
2018-02-07T02:23:55.660Z,8.00
2018-02-07T02:24:55.652Z,8.00
2018-02-07T02:26:16.643Z,8.00
2018-02-07T02:26:55.627Z,8.00
2018-02-07T02:27:55.618Z,8.00
2018-02-07T02:28:55.618Z,8.00
2018-02-07T02:29:55.596Z,8.00
2018-02-07T02:30:55.583Z,8.00
2018-02-07T02:32:16.585Z,8.00
2018-02-07T02:32:55.556Z,8.00
2018-02-07T02:33:55.555Z,8.00
2018-02-07T02:34:55.538Z,8.00
2018-02-07T02:35:55.527Z,8.00
2018-02-07T02:36:55.512Z,8.00
2018-02-07T02:38:16.512Z,8.00
2018-02-07T02:38:55.487Z,8.00
2018-02-07T02:39:55.475Z,8.00
2018-02-07T02:40:55.463Z,8.00
2018-02-07T02:41:55.451Z,8.00
2018-02-07T02:42:55.446Z,8.00
2018-02-07T02:44:16.432Z,8.00
2018-02-07T02:44:55.416Z,8.00
2018-02-07T02:45:55.407Z,8.00
2018-02-07T02:46:55.406Z,8.00
2018-02-07T02:47:55.382Z,8.00
2018-02-07T02:48:55.376Z,8.00
2018-02-07T02:50:16.418Z,8.00
2018-02-07T02:50:55.351Z,8.00
2018-02-07T02:51:55.340Z,8.00
2018-02-07T02:52:55.322Z,8.00
2018-02-07T02:53:55.315Z,8.00
2018-02-07T02:54:55.333Z,8.00
2018-02-07T02:56:16.295Z,8.00
2018-02-07T02:56:55.276Z,8.00
2018-02-07T02:57:55.265Z,8.00
2018-02-07T02:58:55.253Z,8.00
2018-02-07T02:59:55.239Z,8.00
2018-02-07T03:00:55.237Z,8.00
2018-02-07T03:02:16.218Z,8.00
2018-02-07T03:02:55.214Z,8.00
2018-02-07T03:03:55.204Z,8.00
2018-02-07T03:04:55.188Z,8.00
2018-02-07T03:05:55.175Z,8.00
2018-02-07T03:06:55.163Z,8.00
2018-02-07T03:08:16.150Z,8.00
2018-02-07T03:08:55.130Z,8.00
2018-02-07T03:09:55.123Z,8.00
2018-02-07T03:10:55.108Z,8.00
2018-02-07T03:11:55.097Z,8.00
2018-02-07T03:12:55.088Z,8.00
2018-02-07T03:14:16.078Z,8.00
2018-02-07T03:14:55.061Z,8.00
2018-02-07T03:15:55.047Z,8.00
2018-02-07T03:16:55.037Z,8.00
2018-02-07T03:17:55.026Z,8.00
2018-02-07T03:18:55.021Z,8.00
2018-02-07T03:20:16.107Z,8.00
2018-02-07T03:20:54.992Z,8.00
2018-02-07T03:21:54.977Z,8.00
2018-02-07T03:22:54.971Z,8.00
2018-02-07T03:23:54.962Z,8.00
2018-02-07T03:24:54.946Z,8.00
2018-02-07T03:26:15.936Z,8.00
2018-02-07T03:26:54.921Z,8.00
2018-02-07T03:27:54.905Z,8.00
2018-02-07T03:28:54.897Z,8.00
2018-02-07T03:29:54.880Z,8.00
2018-02-07T03:30:54.874Z,8.00
2018-02-07T03:32:17.213Z,8.00
2018-02-07T03:32:55.509Z,8.00
2018-02-07T03:33:55.401Z,8.00
2018-02-07T03:34:54.820Z,8.00
2018-02-07T03:35:54.816Z,8.00
2018-02-07T03:36:54.806Z,8.00
2018-02-07T03:38:15.800Z,8.00
2018-02-07T03:38:54.779Z,8.00
2018-02-07T03:39:54.774Z,8.00
2018-02-07T03:40:54.750Z,8.00
2018-02-07T03:41:54.738Z,8.00
2018-02-07T03:42:54.724Z,8.00
2018-02-07T03:44:15.719Z,8.00
2018-02-07T03:44:54.710Z,8.00
2018-02-07T03:45:54.697Z,8.00
2018-02-07T03:46:54.679Z,8.00
2018-02-07T03:47:54.671Z,8.00
2018-02-07T03:48:54.665Z,8.00
2018-02-07T03:50:15.697Z,8.00
2018-02-07T03:50:54.633Z,8.00
2018-02-07T03:51:54.620Z,8.00
2018-02-07T03:52:54.617Z,8.00
2018-02-07T03:53:54.601Z,8.00
2018-02-07T03:54:54.583Z,8.00
2018-02-07T03:56:15.576Z,8.00
2018-02-07T03:56:54.564Z,8.00
2018-02-07T03:57:54.549Z,8.00
2018-02-07T03:58:54.534Z,8.00
2018-02-07T03:59:54.525Z,8.00
2018-02-07T04:00:54.515Z,8.00
2018-02-07T04:02:15.504Z,8.00
2018-02-07T04:02:54.483Z,8.00
2018-02-07T04:03:54.474Z,8.00
2018-02-07T04:04:54.462Z,8.00
2018-02-07T04:05:54.451Z,8.00
2018-02-07T04:06:54.437Z,8.00
2018-02-07T04:08:15.436Z,8.00
2018-02-07T04:08:54.415Z,8.00
2018-02-07T04:09:54.402Z,8.00
2018-02-07T04:10:54.393Z,8.00
2018-02-07T04:11:54.375Z,8.00
2018-02-07T04:12:54.363Z,12.00
2018-02-07T04:14:15.357Z,8.00
2018-02-07T04:14:54.341Z,8.00
2018-02-07T04:15:54.330Z,8.00
2018-02-07T04:16:54.320Z,8.00
2018-02-07T04:17:54.300Z,8.00
2018-02-07T04:18:54.296Z,8.00
2018-02-07T04:20:15.393Z,8.00
2018-02-07T04:20:54.264Z,8.00
2018-02-07T04:21:54.254Z,8.00
2018-02-07T04:22:54.241Z,8.00
2018-02-07T04:23:54.237Z,8.00
2018-02-07T04:24:54.218Z,8.00
2018-02-07T04:26:15.215Z,8.00
2018-02-07T04:26:54.191Z,8.00
2018-02-07T04:27:54.190Z,8.00
2018-02-07T04:28:54.170Z,8.00
2018-02-07T04:29:54.171Z,8.00
2018-02-07T04:30:54.142Z,12.00
2018-02-07T04:32:15.135Z,8.00
2018-02-07T04:32:54.117Z,8.00
2018-02-07T04:33:54.105Z,8.00
2018-02-07T04:34:54.097Z,8.00
2018-02-07T04:35:54.090Z,8.00
2018-02-07T04:36:54.069Z,8.00
2018-02-07T04:38:15.063Z,8.00
2018-02-07T04:38:54.069Z,8.00
2018-02-07T04:39:54.049Z,8.00
2018-02-07T04:40:54.037Z,8.00
2018-02-07T04:41:54.004Z,8.00
2018-02-07T04:42:53.991Z,8.00
2018-02-07T04:44:14.990Z,8.00
2018-02-07T04:44:53.975Z,8.00
2018-02-07T04:45:53.956Z,8.00
2018-02-07T04:46:53.946Z,8.00
2018-02-07T04:47:53.930Z,8.00
2018-02-07T04:48:53.917Z,8.00
2018-02-07T04:50:14.984Z,8.00
2018-02-07T04:50:53.896Z,8.00
2018-02-07T04:51:53.882Z,8.00
2018-02-07T04:52:53.865Z,8.00
2018-02-07T04:53:53.860Z,8.00
2018-02-07T04:54:53.847Z,8.00
2018-02-07T04:56:14.833Z,8.00
2018-02-07T04:56:53.821Z,8.00
2018-02-07T04:57:53.808Z,8.00
2018-02-07T04:58:53.793Z,8.00
2018-02-07T04:59:53.790Z,8.00
2018-02-07T05:00:53.782Z,8.00
2018-02-07T05:02:14.761Z,8.00
2018-02-07T05:02:53.744Z,8.00
2018-02-07T05:03:53.734Z,8.00
2018-02-07T05:04:53.720Z,8.00
2018-02-07T05:05:53.704Z,8.00
2018-02-07T05:06:53.698Z,8.00
2018-02-07T05:08:14.689Z,8.00
2018-02-07T05:08:53.668Z,8.00
2018-02-07T05:09:53.658Z,8.00
2018-02-07T05:10:53.650Z,8.00
2018-02-07T05:11:53.632Z,8.00
2018-02-07T05:12:53.638Z,8.00
2018-02-07T05:14:14.621Z,8.00
2018-02-07T05:14:53.601Z,8.00
2018-02-07T05:15:53.583Z,8.00
2018-02-07T05:16:53.575Z,8.00
2018-02-07T05:17:53.559Z,8.00
2018-02-07T05:18:53.541Z,8.00
2018-02-07T05:20:14.578Z,12.00
2018-02-07T05:20:53.519Z,8.00
2018-02-07T05:21:53.506Z,8.00
2018-02-07T05:22:53.505Z,8.00
2018-02-07T05:23:53.480Z,8.00
2018-02-07T05:24:53.472Z,8.00
2018-02-07T05:26:14.468Z,8.00
2018-02-07T05:26:53.442Z,8.00
2018-02-07T05:27:53.436Z,8.00
2018-02-07T05:28:53.420Z,8.00
2018-02-07T05:29:53.404Z,8.00
2018-02-07T05:30:53.402Z,8.00
2018-02-07T05:32:14.402Z,8.00
2018-02-07T05:32:53.373Z,8.00
2018-02-07T05:33:53.354Z,8.00
2018-02-07T05:34:53.342Z,8.00
2018-02-07T05:35:53.334Z,8.00
2018-02-07T05:36:53.325Z,8.00
2018-02-07T05:38:14.310Z,8.00
2018-02-07T05:38:53.304Z,8.00
2018-02-07T05:39:53.282Z,8.00
2018-02-07T05:40:53.274Z,8.00
2018-02-07T05:41:53.253Z,12.00
2018-02-07T05:42:53.243Z,12.00
2018-02-07T05:44:14.237Z,16.00
2018-02-07T05:44:53.218Z,16.00
2018-02-07T05:45:53.206Z,16.00
2018-02-07T05:46:53.195Z,16.00
2018-02-07T05:47:53.186Z,16.00
2018-02-07T05:48:53.172Z,16.00
2018-02-07T05:50:14.263Z,16.00
2018-02-07T05:50:53.141Z,16.00
2018-02-07T05:51:53.132Z,16.00
2018-02-07T05:52:53.118Z,16.00
2018-02-07T05:53:53.108Z,20.00
2018-02-07T05:54:53.097Z,16.00
2018-02-07T05:56:14.097Z,16.00
2018-02-07T05:56:53.070Z,16.00
2018-02-07T05:57:53.053Z,16.00
2018-02-07T05:58:53.046Z,16.00
2018-02-07T05:59:53.026Z,16.00
2018-02-07T06:00:53.023Z,16.00
2018-02-07T06:02:14.009Z,16.00
2018-02-07T06:02:52.995Z,16.00
2018-02-07T06:03:52.983Z,16.00
2018-02-07T06:04:52.967Z,16.00
2018-02-07T06:05:52.954Z,16.00
2018-02-07T06:06:52.943Z,16.00
2018-02-07T06:08:13.940Z,16.00
2018-02-07T06:08:52.919Z,16.00
2018-02-07T06:09:52.905Z,16.00
2018-02-07T06:10:52.889Z,20.00
2018-02-07T06:11:52.879Z,20.00
2018-02-07T06:12:52.865Z,20.00
2018-02-07T06:14:13.868Z,16.00
2018-02-07T06:14:52.839Z,16.00
2018-02-07T06:15:52.826Z,16.00
2018-02-07T06:16:52.818Z,16.00
2018-02-07T06:17:52.804Z,20.00
2018-02-07T06:18:52.796Z,20.00
2018-02-07T06:20:13.863Z,16.00
2018-02-07T06:20:52.771Z,16.00
2018-02-07T06:21:52.749Z,20.00
2018-02-07T06:22:52.740Z,20.00
2018-02-07T06:23:52.730Z,20.00
2018-02-07T06:24:52.713Z,16.00
2018-02-07T06:26:13.712Z,20.00
2018-02-07T06:26:52.688Z,20.00
2018-02-07T06:27:52.675Z,20.00
2018-02-07T06:28:52.667Z,24.00
2018-02-07T06:29:52.651Z,20.00
2018-02-07T06:30:52.640Z,24.00
2018-02-07T06:32:13.629Z,24.00
2018-02-07T06:32:52.610Z,24.00
2018-02-07T06:33:52.613Z,28.00
2018-02-07T06:34:52.590Z,28.00
2018-02-07T06:35:52.577Z,28.00
2018-02-07T06:36:52.570Z,32.00
2018-02-07T06:38:13.551Z,32.00
2018-02-07T06:38:52.574Z,36.00
2018-02-07T06:39:52.528Z,40.00
2018-02-07T06:40:52.513Z,44.00
2018-02-07T06:41:52.513Z,44.00
2018-02-07T06:42:52.484Z,48.00
2018-02-07T06:44:13.526Z,52.00
2018-02-07T06:44:52.464Z,52.00
2018-02-07T06:45:52.453Z,56.00
2018-02-07T06:46:52.438Z,56.00
2018-02-07T06:47:52.422Z,60.00
2018-02-07T06:48:52.417Z,68.00
2018-02-07T06:50:13.463Z,68.00
2018-02-07T06:50:52.386Z,76.00
2018-02-07T06:51:52.371Z,80.00
2018-02-07T06:52:52.372Z,80.00
2018-02-07T06:53:52.347Z,84.00
2018-02-07T06:54:52.346Z,88.00
2018-02-07T06:56:13.356Z,92.00
2018-02-07T06:56:52.312Z,96.00
2018-02-07T06:57:52.299Z,100.00
2018-02-07T06:58:52.282Z,104.00
2018-02-07T06:59:52.298Z,108.00
2018-02-07T07:00:52.291Z,108.00
2018-02-07T07:02:13.293Z,112.00
2018-02-07T07:02:52.235Z,120.00
2018-02-07T07:03:52.243Z,120.00
2018-02-07T07:04:52.210Z,128.00
2018-02-07T07:05:52.199Z,136.00
2018-02-07T07:06:52.186Z,140.00
2018-02-07T07:08:13.178Z,144.00
2018-02-07T07:08:52.162Z,140.00
2018-02-07T07:09:52.148Z,144.00
2018-02-07T07:10:52.137Z,160.00
2018-02-07T07:11:52.124Z,164.00
2018-02-07T07:12:52.109Z,168.00
2018-02-07T07:14:13.134Z,176.00
2018-02-07T07:14:52.094Z,192.00
2018-02-07T07:15:52.080Z,208.00
2018-02-07T07:16:52.061Z,208.00
2018-02-07T07:17:52.053Z,216.00
2018-02-07T07:18:52.040Z,228.00
2018-02-07T07:20:13.134Z,252.00
2018-02-07T07:20:52.011Z,264.00
2018-02-07T07:21:52.004Z,276.00
2018-02-07T07:22:51.992Z,280.00
2018-02-07T07:23:51.976Z,292.00
2018-02-07T07:24:51.992Z,304.00
2018-02-07T07:26:12.957Z,316.00
2018-02-07T07:26:51.940Z,320.00
2018-02-07T07:27:51.929Z,312.00
2018-02-07T07:28:51.918Z,316.00
2018-02-07T07:29:51.916Z,328.00
2018-02-07T07:30:52.070Z,344.00
2018-02-07T07:32:12.909Z,352.00
2018-02-07T07:32:51.881Z,368.00
2018-02-07T07:33:51.860Z,380.00
2018-02-07T07:34:51.842Z,396.00
2018-02-07T07:35:51.829Z,408.00
2018-02-07T07:36:51.835Z,420.00
2018-02-07T07:38:12.809Z,436.00
2018-02-07T07:38:51.843Z,452.00
2018-02-07T07:39:51.794Z,456.00
2018-02-07T07:40:51.778Z,456.00
2018-02-07T07:41:51.769Z,456.00
2018-02-07T07:42:51.750Z,456.00
2018-02-07T07:44:12.741Z,472.00
2018-02-07T07:44:51.723Z,480.00
2018-02-07T07:45:51.800Z,492.00
2018-02-07T07:46:51.705Z,492.00
2018-02-07T07:47:51.687Z,500.00
2018-02-07T07:48:51.686Z,500.00
2018-02-07T07:50:12.765Z,504.00
2018-02-07T07:50:51.649Z,512.00
2018-02-07T07:51:51.640Z,528.00
2018-02-07T07:52:51.631Z,536.00
2018-02-07T07:53:51.664Z,548.00
2018-02-07T07:54:51.600Z,564.00
2018-02-07T07:56:13.719Z,576.00
2018-02-07T07:56:51.665Z,584.00
2018-02-07T07:57:51.623Z,592.00
2018-02-07T07:58:51.961Z,612.00
2018-02-07T07:59:51.714Z,628.00
2018-02-07T08:00:51.573Z,644.00
2018-02-07T08:02:12.547Z,660.00
2018-02-07T08:02:51.529Z,668.00
2018-02-07T08:03:51.520Z,676.00
2018-02-07T08:04:51.953Z,664.00
2018-02-07T08:05:51.490Z,644.00
2018-02-07T08:06:51.499Z,628.00
2018-02-07T08:08:12.479Z,632.00
2018-02-07T08:08:51.461Z,640.00
2018-02-07T08:09:51.626Z,656.00
2018-02-07T08:10:51.468Z,680.00
2018-02-07T08:11:51.411Z,704.00
2018-02-07T08:12:51.398Z,712.00
2018-02-07T08:14:12.391Z,720.00
2018-02-07T08:14:51.379Z,744.00
2018-02-07T08:15:51.355Z,756.00
2018-02-07T08:16:51.355Z,768.00
2018-02-07T08:17:51.342Z,796.00
2018-02-07T08:18:51.325Z,816.00
2018-02-07T08:20:12.415Z,812.00
2018-02-07T08:20:51.345Z,836.00
2018-02-07T08:21:51.305Z,856.00
2018-02-07T08:22:51.281Z,864.00
2018-02-07T08:23:51.726Z,888.00
2018-02-07T08:24:51.255Z,892.00
2018-02-07T08:26:12.250Z,900.00
2018-02-07T08:26:51.860Z,904.00
2018-02-07T08:27:51.216Z,912.00
2018-02-07T08:28:51.208Z,912.00
2018-02-07T08:29:51.206Z,912.00
2018-02-07T08:30:52.617Z,916.00
2018-02-07T08:32:12.184Z,956.00
2018-02-07T08:32:51.162Z,1004.00
2018-02-07T08:33:51.160Z,1028.00
2018-02-07T08:34:51.137Z,1044.00
2018-02-07T08:35:51.124Z,1048.00
2018-02-07T08:36:51.115Z,1028.00
2018-02-07T08:38:12.110Z,1032.00
2018-02-07T08:38:51.089Z,1036.00
2018-02-07T08:39:51.088Z,1044.00
2018-02-07T08:40:51.085Z,1076.00
2018-02-07T08:41:51.067Z,1068.00
2018-02-07T08:42:51.054Z,1080.00
2018-02-07T08:44:12.050Z,1112.00
2018-02-07T08:44:51.021Z,1144.00
2018-02-07T08:45:51.012Z,1164.00
2018-02-07T08:46:51.001Z,1184.00
2018-02-07T08:47:51.035Z,1184.00
2018-02-07T08:48:50.988Z,1164.00
2018-02-07T08:50:11.971Z,1144.00
2018-02-07T08:50:50.960Z,1128.00
2018-02-07T08:51:50.955Z,1164.00
2018-02-07T08:52:50.935Z,1140.00
2018-02-07T08:53:50.927Z,1132.00
2018-02-07T08:54:50.909Z,1096.00
2018-02-07T08:56:11.905Z,1068.00
2018-02-07T08:56:51.538Z,1088.00
2018-02-07T08:57:50.907Z,1144.00
2018-02-07T08:58:51.013Z,1192.00
2018-02-07T08:59:50.862Z,1232.00
2018-02-07T09:00:50.851Z,1228.00
2018-02-07T09:02:11.839Z,1276.00
2018-02-07T09:02:51.344Z,1304.00
2018-02-07T09:03:50.878Z,1308.00
2018-02-07T09:04:50.808Z,1284.00
2018-02-07T09:05:50.793Z,1304.00
2018-02-07T09:06:50.777Z,1312.00
2018-02-07T09:08:11.773Z,1252.00
2018-02-07T09:08:50.762Z,1160.00
2018-02-07T09:09:50.746Z,1132.00
2018-02-07T09:10:50.753Z,1140.00
2018-02-07T09:11:50.721Z,1132.00
2018-02-07T09:12:50.742Z,1156.00
2018-02-07T09:14:11.708Z,1204.00
2018-02-07T09:14:50.691Z,1200.00
2018-02-07T09:15:50.682Z,1168.00
2018-02-07T09:16:50.670Z,1104.00
2018-02-07T09:17:50.709Z,1072.00
2018-02-07T09:18:50.738Z,1024.00
2018-02-07T09:20:11.645Z,1016.00
2018-02-07T09:20:50.623Z,992.00
2018-02-07T09:21:50.617Z,1004.00
2018-02-07T09:22:50.607Z,1000.00
2018-02-07T09:23:50.589Z,1004.00
2018-02-07T09:24:50.609Z,1020.00
2018-02-07T09:26:12.532Z,1032.00
2018-02-07T09:26:56.022Z,1004.00
2018-02-07T09:27:53.471Z,1004.00
2018-02-07T09:29:02.404Z,1036.00
2018-02-07T09:29:53.404Z,1064.00
2018-02-07T09:31:45.012Z,1120.00
2018-02-07T09:32:45.047Z,1176.00
2018-02-07T09:33:45.096Z,1236.00
2018-02-07T09:34:44.873Z,1284.00
2018-02-07T09:35:44.883Z,1296.00
2018-02-07T09:36:44.998Z,1316.00
2018-02-07T09:37:44.918Z,1304.00
2018-02-07T09:38:44.859Z,1220.00
2018-02-07T09:39:44.852Z,1196.00
2018-02-07T09:40:44.868Z,1188.00
2018-02-07T09:41:44.870Z,1144.00
2018-02-07T09:42:44.815Z,1116.00
2018-02-07T09:43:44.861Z,1108.00
2018-02-07T09:44:44.761Z,1144.00
2018-02-07T09:45:44.760Z,1164.00
2018-02-07T09:46:44.747Z,1176.00
2018-02-07T09:47:44.764Z,1152.00
2018-02-07T09:48:44.722Z,1136.00
2018-02-07T09:49:44.719Z,1176.00
2018-02-07T09:50:44.701Z,1224.00
2018-02-07T09:51:44.726Z,1232.00
2018-02-07T09:52:44.680Z,1356.00
2018-02-07T09:53:44.666Z,1468.00
2018-02-07T09:54:44.651Z,1532.00
2018-02-07T09:55:44.641Z,1596.00
2018-02-07T09:56:44.638Z,1604.00
2018-02-07T09:57:44.625Z,1564.00
2018-02-07T09:58:44.614Z,1468.00
2018-02-07T09:59:44.598Z,1388.00
2018-02-07T10:00:44.592Z,1336.00
2018-02-07T10:01:44.581Z,1356.00
2018-02-07T10:02:44.566Z,1424.00
2018-02-07T10:03:44.677Z,1444.00
2018-02-07T10:04:45.118Z,1456.00
2018-02-07T10:05:45.344Z,1512.00
2018-02-07T10:06:44.555Z,1592.00
2018-02-07T10:07:44.536Z,1568.00
2018-02-07T10:08:44.501Z,1528.00
2018-02-07T10:09:44.617Z,1600.00
2018-02-07T10:10:45.305Z,1716.00
2018-02-07T10:11:45.400Z,1796.00
2018-02-07T10:12:46.360Z,1792.00
2018-02-07T10:13:44.743Z,1804.00
2018-02-07T10:14:45.598Z,1804.00
2018-02-07T10:15:44.426Z,1880.00
2018-02-07T10:16:44.548Z,1888.00
2018-02-07T10:17:46.631Z,1964.00
2018-02-07T10:18:45.634Z,1988.00
2018-02-07T10:19:45.408Z,1936.00
2018-02-07T10:20:45.473Z,1884.00
2018-02-07T10:21:44.509Z,1860.00
2018-02-07T10:22:44.654Z,1864.00
2018-02-07T10:23:44.347Z,1900.00
2018-02-07T10:24:44.330Z,1896.00
2018-02-07T10:25:44.475Z,1868.00
2018-02-07T10:26:44.314Z,1868.00
2018-02-07T10:27:44.301Z,1796.00
2018-02-07T10:28:44.288Z,1800.00
2018-02-07T10:29:44.276Z,1864.00
2018-02-07T10:30:44.418Z,1944.00
2018-02-07T10:31:44.257Z,2016.00
2018-02-07T10:32:44.245Z,1976.00
2018-02-07T10:33:45.338Z,1996.00
2018-02-07T10:34:44.225Z,1956.00
2018-02-07T10:35:45.359Z,1836.00
2018-02-07T10:36:44.208Z,1848.00
2018-02-07T10:37:44.192Z,1932.00
2018-02-07T10:38:44.182Z,2080.00
2018-02-07T10:39:44.199Z,2208.00
2018-02-07T10:40:44.159Z,2220.00
2018-02-07T10:41:44.149Z,2220.00
2018-02-07T10:42:44.141Z,2192.00
2018-02-07T10:43:44.126Z,2108.00
2018-02-07T10:44:44.120Z,2140.00
2018-02-07T10:45:44.106Z,2164.00
2018-02-07T10:46:44.109Z,2168.00
2018-02-07T10:47:44.087Z,2212.00
2018-02-07T10:48:44.078Z,2204.00
2018-02-07T10:49:44.068Z,2252.00
2018-02-07T10:50:44.054Z,2312.00
2018-02-07T10:51:44.041Z,2352.00
2018-02-07T10:52:44.034Z,2392.00
2018-02-07T10:53:44.023Z,2316.00
2018-02-07T10:54:44.017Z,2312.00
2018-02-07T10:55:44.006Z,2212.00
2018-02-07T10:56:43.991Z,2276.00
2018-02-07T10:57:44.895Z,2228.00
2018-02-07T10:58:43.974Z,2332.00
2018-02-07T10:59:43.959Z,2300.00
2018-02-07T11:00:43.951Z,2304.00
2018-02-07T11:01:43.942Z,2256.00
2018-02-07T11:02:43.929Z,2300.00
2018-02-07T11:03:43.920Z,2348.00
2018-02-07T11:04:43.912Z,2436.00
2018-02-07T11:05:43.898Z,2380.00
2018-02-07T11:06:43.892Z,2352.00
2018-02-07T11:07:43.881Z,2332.00
2018-02-07T11:08:43.869Z,2384.00
2018-02-07T11:09:43.858Z,2560.00
2018-02-07T11:10:44.866Z,2384.00
2018-02-07T11:11:43.952Z,2348.00
2018-02-07T11:12:44.800Z,2448.00
2018-02-07T11:13:43.889Z,2336.00
2018-02-07T11:14:43.911Z,2192.00
2018-02-07T11:15:43.800Z,2328.00
2018-02-07T11:16:43.803Z,2456.00
2018-02-07T11:17:43.778Z,2476.00
2018-02-07T11:18:43.932Z,2436.00
2018-02-07T11:19:43.791Z,2460.00
2018-02-07T11:20:43.814Z,2524.00
2018-02-07T11:21:43.924Z,2556.00
2018-02-07T11:22:43.915Z,2420.00
2018-02-07T11:23:43.913Z,2456.00
2018-02-07T11:24:43.844Z,2472.00
2018-02-07T11:25:43.814Z,2336.00
2018-02-07T11:26:43.842Z,2212.00
2018-02-07T11:27:43.849Z,2144.00
2018-02-07T11:28:43.860Z,2204.00
2018-02-07T11:29:43.662Z,2144.00
2018-02-07T11:30:43.832Z,2216.00
2018-02-07T11:31:44.298Z,2120.00
2018-02-07T11:32:44.387Z,1992.00
2018-02-07T11:33:43.624Z,1932.00
2018-02-07T11:34:43.618Z,1800.00
2018-02-07T11:35:43.601Z,1704.00
2018-02-07T11:36:43.594Z,1676.00
2018-02-07T11:37:43.582Z,1700.00
2018-02-07T11:38:43.571Z,1856.00
2018-02-07T11:39:43.670Z,1880.00
2018-02-07T11:40:43.558Z,2060.00
2018-02-07T11:41:43.542Z,2056.00
2018-02-07T11:42:43.534Z,2076.00
2018-02-07T11:43:43.531Z,2220.00
2018-02-07T11:44:43.511Z,2128.00
2018-02-07T11:45:43.501Z,2356.00
2018-02-07T11:46:43.492Z,1936.00
2018-02-07T11:47:43.483Z,2020.00
2018-02-07T11:48:43.476Z,2196.00
2018-02-07T11:49:43.465Z,2120.00
2018-02-07T11:50:43.451Z,2056.00
2018-02-07T11:51:43.442Z,2024.00
2018-02-07T11:52:43.439Z,1980.00
2018-02-07T11:53:43.420Z,1876.00
2018-02-07T11:54:43.426Z,1960.00
2018-02-07T11:55:43.403Z,2100.00
2018-02-07T11:56:43.392Z,1732.00
2018-02-07T11:57:43.382Z,1748.00
2018-02-07T11:58:43.372Z,1700.00
2018-02-07T11:59:43.389Z,1780.00
2018-02-07T12:00:43.356Z,1680.00
2018-02-07T12:01:43.346Z,1716.00
2018-02-07T12:02:43.336Z,1680.00
2018-02-07T12:03:43.325Z,1716.00
2018-02-07T12:04:43.315Z,1828.00
2018-02-07T12:05:43.308Z,1796.00
2018-02-07T12:06:43.680Z,1648.00
2018-02-07T12:07:43.295Z,1712.00
2018-02-07T12:08:43.294Z,1704.00
2018-02-07T12:09:43.270Z,1672.00
2018-02-07T12:10:43.254Z,1636.00
2018-02-07T12:11:43.250Z,1652.00
2018-02-07T12:12:43.235Z,1576.00
2018-02-07T12:13:43.443Z,1644.00
2018-02-07T12:14:43.213Z,1632.00
2018-02-07T12:15:43.207Z,1512.00
2018-02-07T12:16:43.215Z,1512.00
2018-02-07T12:17:43.184Z,1452.00
2018-02-07T12:18:43.176Z,1428.00
2018-02-07T12:19:43.164Z,1552.00
2018-02-07T12:20:43.339Z,1596.00
2018-02-07T12:21:43.154Z,1644.00
2018-02-07T12:22:43.134Z,1532.00
2018-02-07T12:23:43.125Z,1540.00
2018-02-07T12:24:44.104Z,1484.00
2018-02-07T12:25:43.121Z,1468.00
2018-02-07T12:26:43.096Z,1468.00
2018-02-07T12:27:43.099Z,1500.00
2018-02-07T12:28:43.073Z,1432.00
2018-02-07T12:29:43.096Z,1472.00
2018-02-07T12:30:43.054Z,1464.00
2018-02-07T12:31:43.043Z,1456.00
2018-02-07T12:32:43.035Z,1464.00
2018-02-07T12:33:43.027Z,1384.00
2018-02-07T12:34:43.014Z,1484.00
2018-02-07T12:35:43.006Z,1508.00
2018-02-07T12:36:42.994Z,1524.00
2018-02-07T12:37:44.122Z,1528.00
2018-02-07T12:38:42.981Z,1588.00
2018-02-07T12:39:42.962Z,1648.00
2018-02-07T12:40:42.960Z,1492.00
2018-02-07T12:41:43.880Z,1544.00
2018-02-07T12:42:43.882Z,1468.00
2018-02-07T12:43:42.922Z,1404.00
2018-02-07T12:44:42.915Z,1412.00
2018-02-07T12:45:42.901Z,1456.00